createdAt,value
2024-02-11T08:19:12.810Z,10.40
2024-02-11T08:21:45.040Z,10.40
2024-02-11T08:24:27.156Z,10.50
2024-02-11T08:26:59.392Z,10.80
2024-02-11T08:29:26.534Z,10.60
2024-02-11T08:32:01.492Z,10.70
2024-02-11T08:34:40.951Z,11.10
2024-02-11T08:37:13.942Z,10.60
2024-02-11T08:39:41.402Z,10.80
2024-02-11T08:42:33.088Z,10.70
2024-02-11T08:45:32.304Z,11.00
2024-02-11T08:48:01.708Z,10.70
2024-02-11T08:50:30.691Z,10.90
2024-02-11T08:52:57.757Z,11.00
2024-02-11T08:55:24.558Z,11.00
2024-02-11T08:57:51.500Z,11.40
2024-02-11T09:00:19.821Z,10.60
2024-02-11T09:02:47.657Z,11.00
2024-02-11T09:05:14.765Z,10.90
2024-02-11T09:07:43.977Z,11.30
2024-02-11T09:10:14.881Z,11.30
2024-02-11T09:12:43.276Z,11.40
2024-02-11T09:15:12.098Z,11.20
2024-02-11T09:17:45.088Z,11.40
2024-02-11T09:20:17.124Z,11.70
2024-02-11T09:22:44.526Z,11.30
2024-02-11T09:25:13.071Z,11.50
2024-02-11T09:27:39.946Z,11.30
2024-02-11T09:30:08.955Z,11.40
2024-02-11T09:32:36.313Z,11.40
2024-02-11T09:35:04.781Z,11.40
2024-02-11T09:37:34.646Z,11.50
2024-02-11T09:40:09.066Z,11.50
2024-02-11T09:42:36.424Z,11.50
2024-02-11T09:45:06.206Z,11.60
2024-02-11T09:47:35.347Z,11.60
2024-02-11T09:50:07.991Z,11.90
2024-02-11T09:52:34.910Z,11.70
2024-02-11T09:55:03.745Z,11.90
2024-02-11T09:57:30.602Z,12.00
2024-02-11T09:59:57.450Z,12.00
2024-02-11T10:02:25.216Z,11.90
2024-02-11T10:05:01.172Z,11.90
2024-02-11T10:07:28.890Z,11.80
2024-02-11T10:09:59.965Z,12.30
2024-02-11T10:12:31.965Z,12.30
2024-02-11T10:15:05.698Z,11.80
2024-02-11T10:21:40.865Z,12.00
2024-02-11T10:24:36.355Z,12.30
2024-02-11T10:27:08.898Z,12.50
2024-02-11T10:29:36.591Z,12.00
2024-02-11T10:32:15.803Z,12.40
2024-02-11T10:34:56.604Z,12.10
2024-02-11T10:38:12.281Z,12.10
2024-02-11T10:41:02.209Z,12.00
2024-02-11T10:47:22.728Z,12.20
2024-02-11T10:50:11.750Z,12.20
2024-02-11T10:53:19.064Z,12.30
2024-02-11T11:00:15.661Z,12.30
2024-02-11T11:03:34.215Z,12.40
2024-02-11T11:10:55.465Z,13.00
2024-02-11T11:31:56.547Z,13.00
2024-02-11T11:34:29.040Z,13.50
2024-02-11T11:37:16.108Z,13.10
2024-02-11T11:40:34.726Z,13.30
2024-02-11T11:43:27.459Z,13.00
2024-02-11T11:47:06.203Z,13.30
2024-02-11T11:49:56.637Z,13.10
2024-02-11T11:52:28.446Z,13.20
2024-02-11T11:55:01.553Z,13.50
2024-02-11T11:57:32.656Z,13.20
2024-02-11T12:00:07.976Z,13.20
2024-02-11T12:02:37.699Z,13.10
2024-02-11T12:05:10.508Z,13.20
2024-02-11T12:07:39.915Z,13.20
2024-02-11T12:10:35.620Z,13.60
2024-02-11T12:13:04.717Z,13.40
2024-02-11T12:15:32.174Z,13.00
2024-02-11T12:18:02.402Z,13.40
2024-02-11T12:20:53.664Z,13.50
2024-02-11T12:23:49.074Z,13.30
2024-02-11T12:26:42.568Z,13.50
2024-02-11T12:29:09.498Z,13.90
2024-02-11T12:31:46.056Z,13.50
2024-02-11T12:34:58.330Z,13.80
2024-02-11T12:37:47.599Z,14.00
2024-02-11T12:40:23.569Z,13.70
2024-02-11T12:43:37.879Z,13.90
2024-02-11T12:46:10.019Z,14.00
2024-02-11T12:48:51.070Z,14.00
2024-02-11T12:51:28.054Z,13.90
2024-02-11T12:54:19.722Z,14.30
2024-02-11T12:57:17.534Z,13.90
2024-02-11T12:59:55.952Z,14.00
2024-02-11T13:02:24.803Z,14.00
2024-02-11T13:05:32.084Z,14.00
2024-02-11T13:07:59.171Z,13.70
2024-02-11T13:10:26.937Z,14.30
2024-02-11T13:12:54.126Z,13.90
2024-02-11T13:15:23.779Z,14.30
2024-02-11T13:17:51.231Z,13.70
2024-02-11T13:20:22.971Z,12.70
2024-02-11T13:22:50.926Z,13.80
2024-02-11T13:25:21.755Z,13.80
2024-02-11T13:27:48.885Z,13.80
2024-02-11T13:30:16.276Z,13.80
2024-02-11T13:32:44.151Z,13.80
2024-02-11T13:35:13.154Z,13.80
2024-02-11T13:37:43.368Z,14.40
2024-02-11T13:40:13.324Z,13.90
2024-02-11T13:42:44.196Z,13.80
2024-02-11T13:45:14.248Z,14.10
2024-02-11T13:47:45.089Z,13.80
2024-02-11T13:50:12.345Z,13.70
2024-02-11T13:52:41.379Z,13.70
2024-02-11T13:55:11.136Z,13.70
2024-02-11T13:57:44.836Z,13.70
2024-02-11T14:00:13.186Z,14.10
2024-02-11T14:02:44.464Z,13.80
2024-02-11T14:05:11.792Z,14.10
2024-02-11T14:07:41.363Z,13.70
2024-02-11T14:10:13.365Z,13.80
2024-02-11T14:12:42.827Z,14.20
2024-02-11T14:15:16.176Z,14.50
2024-02-11T14:17:51.553Z,13.80
2024-02-11T14:20:22.278Z,13.80
2024-02-11T14:22:50.736Z,14.50
2024-02-11T14:25:20.190Z,14.20
2024-02-11T14:27:53.435Z,13.90
2024-02-11T14:30:21.031Z,14.30
2024-02-11T14:32:50.387Z,14.40
2024-02-11T14:35:22.348Z,14.20
2024-02-11T14:37:49.950Z,13.80
2024-02-11T14:40:18.509Z,13.90
2024-02-11T14:42:46.969Z,13.80
2024-02-11T14:45:14.377Z,14.20
2024-02-11T14:47:42.146Z,14.40
2024-02-11T14:50:10.523Z,14.20
2024-02-11T14:52:38.526Z,13.80
2024-02-11T14:55:07.516Z,14.00
2024-02-11T14:57:35.374Z,13.80
2024-02-11T15:00:03.709Z,13.60
2024-02-11T15:02:31.182Z,14.10
2024-02-11T15:04:58.533Z,13.60
2024-02-11T15:07:26.765Z,13.80
2024-02-11T15:09:56.617Z,14.00
2024-02-11T15:12:26.871Z,13.90
2024-02-11T15:14:56.033Z,13.80
2024-02-11T15:17:23.158Z,13.90
2024-02-11T15:19:50.287Z,13.90
2024-02-11T15:22:17.562Z,13.70
2024-02-11T15:24:46.175Z,14.20
2024-02-11T15:27:15.629Z,13.20
2024-02-11T15:29:44.640Z,13.70
2024-02-11T15:32:12.113Z,13.30
2024-02-11T15:34:42.294Z,13.70
2024-02-11T15:37:12.062Z,13.70
2024-02-11T15:39:41.154Z,14.10
2024-02-11T15:42:12.176Z,14.30
2024-02-11T15:44:40.923Z,14.00
2024-02-11T15:47:23.293Z,13.60
2024-02-11T15:49:57.128Z,13.90
2024-02-11T15:52:26.716Z,13.70
2024-02-11T15:54:56.600Z,13.60
2024-02-11T15:57:26.196Z,13.80
2024-02-11T15:59:53.735Z,13.70
2024-02-11T16:02:20.716Z,13.80
2024-02-11T16:04:47.842Z,13.60
2024-02-11T16:07:23.172Z,13.70
2024-02-11T16:09:50.352Z,13.60
2024-02-11T16:12:23.208Z,13.30
2024-02-11T16:14:55.663Z,13.70
2024-02-11T16:17:25.292Z,13.90
2024-02-11T16:19:52.412Z,13.50
2024-02-11T16:22:22.224Z,13.80
2024-02-11T16:24:52.139Z,14.10
2024-02-11T16:27:24.739Z,13.50
2024-02-11T16:29:51.954Z,13.80
2024-02-11T16:32:22.770Z,13.60
2024-02-11T16:34:55.369Z,13.40
2024-02-11T16:37:36.658Z,13.40
2024-02-11T16:40:15.694Z,13.40
2024-02-11T16:42:54.057Z,13.50
2024-02-11T16:45:25.564Z,13.60
2024-02-11T16:49:06.610Z,13.30
2024-02-11T16:55:29.150Z,13.20
2024-02-11T16:58:09.250Z,13.00
2024-02-11T17:05:09.650Z,13.20
2024-02-11T17:08:05.971Z,13.10
2024-02-11T17:10:32.945Z,13.10
2024-02-11T17:12:59.791Z,13.00
2024-02-11T17:15:26.783Z,13.40
2024-02-11T17:17:53.891Z,13.00
2024-02-11T17:20:25.585Z,13.30
2024-02-11T17:22:55.272Z,12.90
2024-02-11T17:25:22.856Z,13.00
2024-02-11T17:27:51.298Z,13.00
2024-02-11T17:30:18.808Z,12.90
2024-02-11T17:32:52.140Z,12.90
2024-02-11T17:35:35.964Z,13.00
2024-02-11T17:38:03.017Z,13.30
2024-02-11T17:40:31.161Z,13.40
2024-02-11T17:42:59.723Z,13.10
2024-02-11T17:45:27.565Z,12.60
2024-02-11T17:47:55.714Z,12.70
2024-02-11T17:50:23.075Z,12.70
2024-02-11T17:52:50.470Z,12.80
2024-02-11T17:55:18.265Z,13.00
2024-02-11T17:57:45.672Z,12.70
2024-02-11T18:00:19.438Z,12.40
2024-02-11T18:02:48.055Z,12.70
2024-02-11T18:05:15.308Z,12.80
2024-02-11T18:07:47.897Z,12.70
2024-02-11T18:10:18.656Z,12.70
2024-02-11T18:12:45.924Z,12.30
2024-02-11T18:15:17.815Z,12.70
2024-02-11T18:17:49.330Z,12.60
2024-02-11T18:20:17.634Z,12.90
2024-02-11T18:22:45.905Z,12.50
2024-02-11T18:25:20.636Z,12.50
2024-02-11T18:27:57.333Z,12.50
2024-02-11T18:30:25.044Z,12.90
2024-02-11T18:32:53.267Z,12.40
2024-02-11T18:35:23.510Z,12.60
2024-02-11T18:37:50.960Z,12.80
2024-02-11T18:40:23.962Z,12.60
2024-02-11T18:42:51.262Z,12.60
2024-02-11T18:45:18.505Z,12.40
2024-02-11T18:47:47.512Z,12.40
2024-02-11T18:50:14.916Z,12.70
2024-02-11T18:52:49.130Z,12.50
2024-02-11T18:55:16.204Z,12.70
2024-02-11T18:57:44.771Z,12.30
2024-02-11T19:00:17.759Z,12.40
2024-02-11T19:02:45.747Z,12.30
2024-02-11T19:05:24.468Z,12.10
2024-02-11T19:08:14.077Z,12.30
2024-02-11T19:10:46.487Z,11.80
2024-02-11T19:13:13.640Z,12.20
2024-02-11T19:15:42.210Z,12.30
2024-02-11T19:18:12.357Z,12.70
2024-02-11T19:20:47.779Z,12.30
2024-02-11T19:23:18.259Z,12.40
2024-02-11T19:25:46.824Z,12.40
2024-02-11T19:28:18.756Z,12.70
2024-02-11T19:30:55.242Z,11.80
2024-02-11T19:33:23.259Z,12.20
2024-02-11T19:36:06.613Z,12.50
2024-02-11T19:38:37.081Z,12.20
2024-02-11T19:41:10.581Z,12.80
2024-02-11T19:43:42.548Z,12.20
2024-02-11T19:46:12.928Z,12.50
2024-02-11T19:48:48.387Z,12.20
2024-02-11T19:51:25.472Z,12.70
2024-02-11T19:54:04.374Z,12.30
2024-02-11T19:56:39.245Z,12.50
2024-02-11T19:59:09.220Z,12.10
2024-02-11T20:01:38.653Z,12.30
2024-02-11T20:04:05.735Z,12.30
2024-02-11T20:06:40.151Z,12.50
2024-02-11T20:09:21.344Z,12.40
2024-02-11T20:11:57.096Z,12.10
2024-02-11T20:14:27.338Z,12.10
2024-02-11T20:17:37.731Z,12.00
2024-02-11T20:20:19.912Z,12.40
2024-02-11T20:23:07.450Z,12.10
2024-02-11T20:29:06.352Z,12.00
2024-02-11T20:38:40.102Z,12.00
2024-02-11T20:41:05.563Z,12.00
2024-02-11T20:44:13.145Z,12.50
2024-02-11T20:47:03.179Z,12.00
2024-02-11T20:49:59.899Z,12.00
2024-02-11T20:53:27.591Z,11.80
2024-02-11T20:56:04.307Z,11.90
2024-02-11T20:58:50.392Z,12.00
2024-02-11T21:01:34.046Z,11.80
2024-02-11T21:04:21.172Z,12.00
2024-02-11T21:07:22.607Z,11.80
2024-02-11T21:10:23.376Z,11.80
2024-02-11T21:12:56.436Z,11.80
2024-02-11T21:15:38.880Z,11.80
2024-02-11T21:18:16.133Z,11.80
2024-02-11T21:20:49.437Z,11.80
2024-02-11T21:23:19.791Z,11.90
2024-02-11T21:25:52.112Z,11.70
2024-02-11T21:28:24.274Z,12.40
2024-02-11T21:31:01.440Z,11.80
2024-02-11T21:33:35.413Z,12.50
2024-02-11T21:36:05.054Z,12.10
2024-02-11T21:38:32.630Z,12.30
2024-02-11T21:41:23.950Z,11.90
2024-02-11T21:43:55.136Z,11.90
2024-02-11T21:46:24.827Z,12.50
2024-02-11T21:49:03.851Z,12.30
2024-02-11T21:51:38.083Z,11.90
2024-02-11T21:54:13.525Z,12.00
2024-02-11T21:57:03.109Z,11.90
2024-02-11T21:59:39.062Z,12.00
2024-02-11T22:02:24.210Z,12.30
2024-02-11T22:05:04.615Z,11.70
2024-02-11T22:07:47.364Z,11.90
2024-02-11T22:10:14.793Z,11.90
2024-02-11T22:12:51.422Z,11.90
2024-02-11T22:15:21.732Z,11.90
2024-02-11T22:17:54.037Z,11.90
2024-02-11T22:20:27.081Z,12.00
2024-02-11T22:22:57.456Z,12.00
2024-02-11T22:25:24.713Z,11.90
2024-02-11T22:27:57.034Z,12.20
2024-02-11T22:30:24.164Z,11.80
2024-02-11T22:32:54.541Z,11.90
2024-02-11T22:35:22.551Z,11.50
2024-02-11T22:37:51.326Z,12.10
2024-02-11T22:40:25.642Z,12.30
2024-02-11T22:42:56.072Z,12.20
2024-02-11T22:45:29.295Z,11.90
2024-02-11T22:47:56.704Z,12.30
2024-02-11T22:50:29.761Z,12.20
2024-02-11T22:53:02.362Z,12.30
2024-02-11T22:55:34.989Z,11.90
2024-02-11T22:58:03.062Z,11.90
2024-02-11T23:00:36.010Z,12.00
2024-02-11T23:03:09.983Z,12.00
2024-02-11T23:05:37.706Z,11.70
2024-02-11T23:08:14.971Z,12.20
2024-02-11T23:10:43.412Z,11.90
2024-02-11T23:13:10.531Z,11.70
2024-02-11T23:15:37.890Z,11.90
2024-02-11T23:18:08.862Z,11.80
2024-02-11T23:20:36.538Z,11.80
2024-02-11T23:23:03.624Z,11.90
2024-02-11T23:25:30.862Z,11.80
2024-02-11T23:27:59.516Z,11.40
2024-02-11T23:30:26.958Z,12.10
2024-02-11T23:32:57.553Z,11.30
2024-02-11T23:35:25.527Z,11.40
2024-02-11T23:37:56.808Z,11.80
2024-02-11T23:40:25.606Z,11.70
2024-02-11T23:42:54.702Z,11.80
2024-02-11T23:45:23.341Z,11.80
2024-02-11T23:47:50.705Z,11.80
2024-02-11T23:50:20.348Z,11.20
2024-02-11T23:52:51.417Z,11.70
2024-02-11T23:55:24.559Z,11.80
2024-02-11T23:57:54.238Z,11.80
